sensor_id;sensor_type;location;lat;lon;timestamp;pressure;altitude;pressure_sealevel;temperature;humidity
69187;BME280;56301;56.864;60.554;2023-01-31T00:01:35;98208.72;;;24.96;36.90
69187;BME280;56301;56.864;60.554;2023-01-31T00:03:58;98200.59;;;24.96;37.26
69187;BME280;56301;56.864;60.554;2023-01-31T00:06:28;98206.84;;;24.97;37.13
69187;BME280;56301;56.864;60.554;2023-01-31T00:08:51;98206.00;;;24.96;36.54
69187;BME280;56301;56.864;60.554;2023-01-31T00:11:15;98206.00;;;24.96;36.88
69187;BME280;56301;56.864;60.554;2023-01-31T00:13:38;98196.00;;;24.97;36.90
69187;BME280;56301;56.864;60.554;2023-01-31T00:16:00;98199.75;;;24.96;37.11
69187;BME280;56301;56.864;60.554;2023-01-31T00:18:23;98208.50;;;24.98;37.55
69187;BME280;56301;56.864;60.554;2023-01-31T00:20:45;98204.13;;;24.97;36.86
69187;BME280;56301;56.864;60.554;2023-01-31T00:23:08;98209.53;;;24.97;36.87
69187;BME280;56301;56.864;60.554;2023-01-31T00:25:30;98213.91;;;24.98;36.72
69187;BME280;56301;56.864;60.554;2023-01-31T00:27:53;98209.53;;;24.97;37.75
69187;BME280;56301;56.864;60.554;2023-01-31T00:30:15;98215.59;;;24.99;37.10
69187;BME280;56301;56.864;60.554;2023-01-31T00:32:38;98205.16;;;24.96;36.81
69187;BME280;56301;56.864;60.554;2023-01-31T00:35:00;98216.81;;;24.96;36.81
69187;BME280;56301;56.864;60.554;2023-01-31T00:37:23;98210.59;;;24.96;37.03
69187;BME280;56301;56.864;60.554;2023-01-31T00:39:45;98211.41;;;24.96;36.93
69187;BME280;56301;56.864;60.554;2023-01-31T00:42:08;98222.44;;;24.95;36.68
69187;BME280;56301;56.864;60.554;2023-01-31T00:44:30;98221.59;;;24.94;37.29
69187;BME280;56301;56.864;60.554;2023-01-31T00:46:53;98212.47;;;24.95;37.50
69187;BME280;56301;56.864;60.554;2023-01-31T00:49:15;98214.34;;;24.95;36.78
69187;BME280;56301;56.864;60.554;2023-01-31T00:51:38;98217.03;;;24.95;36.92
69187;BME280;56301;56.864;60.554;2023-01-31T00:54:00;98213.47;;;24.94;36.58
69187;BME280;56301;56.864;60.554;2023-01-31T00:56:23;98225.34;;;24.93;37.50
69187;BME280;56301;56.864;60.554;2023-01-31T00:58:45;98221.78;;;24.93;37.27
69187;BME280;56301;56.864;60.554;2023-01-31T01:01:13;98227.22;;;24.93;37.47
69187;BME280;56301;56.864;60.554;2023-01-31T01:03:36;98222.63;;;24.93;36.77
69187;BME280;56301;56.864;60.554;2023-01-31T01:05:59;98221.78;;;24.93;37.03
69187;BME280;56301;56.864;60.554;2023-01-31T01:08:21;98225.53;;;24.92;37.87
69187;BME280;56301;56.864;60.554;2023-01-31T01:10:44;98223.47;;;24.94;37.67
69187;BME280;56301;56.864;60.554;2023-01-31T01:13:07;98227.22;;;24.93;37.14
69187;BME280;56301;56.864;60.554;2023-01-31T01:15:31;98225.72;;;24.90;37.32
69187;BME280;56301;56.864;60.554;2023-01-31T01:17:54;98237.38;;;24.91;37.40
69187;BME280;56301;56.864;60.554;2023-01-31T01:20:16;98229.47;;;24.89;36.55
69187;BME280;56301;56.864;60.554;2023-01-31T01:22:39;98229.47;;;24.89;37.34
69187;BME280;56301;56.864;60.554;2023-01-31T01:25:01;98232.84;;;24.91;37.15
69187;BME280;56301;56.864;60.554;2023-01-31T01:27:25;98234.69;;;24.91;37.52
69187;BME280;56301;56.864;60.554;2023-01-31T01:29:47;98233.00;;;24.90;37.45
69187;BME280;56301;56.864;60.554;2023-01-31T01:32:10;98237.59;;;24.89;37.69
69187;BME280;56301;56.864;60.554;2023-01-31T01:34:33;98231.34;;;24.89;36.94
69187;BME280;56301;56.864;60.554;2023-01-31T01:36:55;98240.31;;;24.89;37.37
69187;BME280;56301;56.864;60.554;2023-01-31T01:39:18;98236.75;;;24.89;37.21
69187;BME280;56301;56.864;60.554;2023-01-31T01:41:41;98229.69;;;24.88;37.31
69187;BME280;56301;56.864;60.554;2023-01-31T01:44:40;98238.63;;;24.88;36.93
69187;BME280;56301;56.864;60.554;2023-01-31T01:46:47;98230.31;;;24.90;38.24
69187;BME280;56301;56.864;60.554;2023-01-31T01:49:17;98232.41;;;24.94;38.64
69187;BME280;56301;56.864;60.554;2023-01-31T01:51:41;98230.34;;;24.96;38.56
69187;BME280;56301;56.864;60.554;2023-01-31T01:54:05;98223.72;;;24.99;38.14
69187;BME280;56301;56.864;60.554;2023-01-31T01:56:33;98228.09;;;25.00;38.88
69187;BME280;56301;56.864;60.554;2023-01-31T01:59:08;98228.91;;;25.01;38.83
69187;BME280;56301;56.864;60.554;2023-01-31T02:01:35;98225.16;;;25.02;38.78
69187;BME280;56301;56.864;60.554;2023-01-31T02:04:03;98220.63;;;25.02;39.42
69187;BME280;56301;56.864;60.554;2023-01-31T02:06:28;98220.81;;;25.01;39.56
69187;BME280;56301;56.864;60.554;2023-01-31T02:08:50;98222.47;;;25.02;38.88
69187;BME280;56301;56.864;60.554;2023-01-31T02:13:45;98219.13;;;25.00;37.07
69187;BME280;56301;56.864;60.554;2023-01-31T02:16:09;98223.06;;;24.97;37.65
69187;BME280;56301;56.864;60.554;2023-01-31T02:18:33;98215.56;;;24.92;35.75
69187;BME280;56301;56.864;60.554;2023-01-31T02:26:14;98230.53;;;24.88;36.79
69187;BME280;56301;56.864;60.554;2023-01-31T02:31:17;98221.75;;;24.86;36.31
69187;BME280;56301;56.864;60.554;2023-01-31T02:33:48;98216.34;;;24.86;36.69
69187;BME280;56301;56.864;60.554;2023-01-31T02:36:20;98219.03;;;24.86;37.09
69187;BME280;56301;56.864;60.554;2023-01-31T02:38:59;98213.84;;;24.85;36.58
69187;BME280;56301;56.864;60.554;2023-01-31T02:41:42;98214.69;;;24.85;36.99
69187;BME280;56301;56.864;60.554;2023-01-31T02:51:44;98217.78;;;24.82;36.85
69187;BME280;56301;56.864;60.554;2023-01-31T02:54:11;98215.91;;;24.83;36.92
69187;BME280;56301;56.864;60.554;2023-01-31T02:56:35;98215.28;;;24.81;36.68
69187;BME280;56301;56.864;60.554;2023-01-31T03:01:25;98219.66;;;24.82;36.59
69187;BME280;56301;56.864;60.554;2023-01-31T03:03:49;98214.63;;;24.79;36.24
69187;BME280;56301;56.864;60.554;2023-01-31T03:08:38;98230.84;;;24.79;36.98
69187;BME280;56301;56.864;60.554;2023-01-31T03:11:03;98230.69;;;24.80;37.16
69187;BME280;56301;56.864;60.554;2023-01-31T03:18:59;98225.44;;;24.79;36.88
69187;BME280;56301;56.864;60.554;2023-01-31T03:21:37;98231.91;;;24.78;37.51
69187;BME280;56301;56.864;60.554;2023-01-31T03:24:01;98230.84;;;24.79;37.12
69187;BME280;56301;56.864;60.554;2023-01-31T03:26:26;98229.19;;;24.78;37.00
69187;BME280;56301;56.864;60.554;2023-01-31T03:28:50;98235.44;;;24.78;37.16
69187;BME280;56301;56.864;60.554;2023-01-31T03:33:39;98239.19;;;24.77;37.08
69187;BME280;56301;56.864;60.554;2023-01-31T03:36:09;98241.06;;;24.77;37.15
69187;BME280;56301;56.864;60.554;2023-01-31T03:38:35;98247.28;;;24.77;36.99
69187;BME280;56301;56.864;60.554;2023-01-31T03:41:11;98230.41;;;24.75;36.89
69187;BME280;56301;56.864;60.554;2023-01-31T03:43:39;98236.47;;;24.77;36.45
69187;BME280;56301;56.864;60.554;2023-01-31T03:48:57;98237.50;;;24.76;36.50
69187;BME280;56301;56.864;60.554;2023-01-31T03:51:23;98244.78;;;24.76;37.08
69187;BME280;56301;56.864;60.554;2023-01-31T03:53:50;98238.53;;;24.75;38.44
69187;BME280;56301;56.864;60.554;2023-01-31T03:56:19;98245.44;;;24.78;38.57
69187;BME280;56301;56.864;60.554;2023-01-31T03:58:44;98244.22;;;24.80;38.16
69187;BME280;56301;56.864;60.554;2023-01-31T04:01:08;98242.44;;;24.66;37.46
69187;BME280;56301;56.864;60.554;2023-01-31T04:03:43;98236.13;;;24.59;37.37
69187;BME280;56301;56.864;60.554;2023-01-31T04:06:08;98248.34;;;24.55;37.42
69187;BME280;56301;56.864;60.554;2023-01-31T04:08:32;98235.03;;;24.53;37.26
69187;BME280;56301;56.864;60.554;2023-01-31T04:10:57;98232.53;;;24.52;37.11
69187;BME280;56301;56.864;60.554;2023-01-31T04:13:20;98231.88;;;24.49;37.16
69187;BME280;56301;56.864;60.554;2023-01-31T04:15:43;98236.44;;;24.49;37.36
69187;BME280;56301;56.864;60.554;2023-01-31T04:18:05;98236.44;;;24.49;37.34
69187;BME280;56301;56.864;60.554;2023-01-31T04:20:28;98240.19;;;24.48;37.11
69187;BME280;56301;56.864;60.554;2023-01-31T04:22:50;98238.50;;;24.47;37.08
69187;BME280;56301;56.864;60.554;2023-01-31T04:25:13;98236.84;;;24.46;36.58
69187;BME280;56301;56.864;60.554;2023-01-31T04:27:35;98243.91;;;24.47;36.64
69187;BME280;56301;56.864;60.554;2023-01-31T04:29:58;98243.91;;;24.47;36.75
69187;BME280;56301;56.864;60.554;2023-01-31T04:32:20;98239.53;;;24.46;37.15
69187;BME280;56301;56.864;60.554;2023-01-31T04:34:43;98249.31;;;24.47;36.52
69187;BME280;56301;56.864;60.554;2023-01-31T04:37:05;98246.81;;;24.45;37.03
69187;BME280;56301;56.864;60.554;2023-01-31T04:39:28;98239.53;;;24.46;37.20
69187;BME280;56301;56.864;60.554;2023-01-31T04:41:51;98244.94;;;24.46;37.02
69187;BME280;56301;56.864;60.554;2023-01-31T04:44:13;98239.75;;;24.44;36.60
69187;BME280;56301;56.864;60.554;2023-01-31T04:46:36;98238.91;;;24.44;36.53
69187;BME280;56301;56.864;60.554;2023-01-31T04:48:58;98248.03;;;24.43;36.46
69187;BME280;56301;56.864;60.554;2023-01-31T04:51:21;98238.91;;;24.44;37.13
69187;BME280;56301;56.864;60.554;2023-01-31T04:53:43;98237.03;;;24.44;36.23
69187;BME280;56301;56.864;60.554;2023-01-31T04:56:06;98247.66;;;24.46;36.82
69187;BME280;56301;56.864;60.554;2023-01-31T04:58:29;98243.28;;;24.45;36.62
69187;BME280;56301;56.864;60.554;2023-01-31T05:00:52;98243.06;;;24.46;36.33
69187;BME280;56301;56.864;60.554;2023-01-31T05:03:15;98243.91;;;24.47;36.92
69187;BME280;56301;56.864;60.554;2023-01-31T05:05:39;98243.06;;;24.46;36.58
69187;BME280;56301;56.864;60.554;2023-01-31T05:08:01;98243.06;;;24.46;36.23
69187;BME280;56301;56.864;60.554;2023-01-31T05:10:24;98237.50;;;24.48;36.08
69187;BME280;56301;56.864;60.554;2023-01-31T05:12:46;98234.97;;;24.46;36.07
69187;BME280;56301;56.864;60.554;2023-01-31T05:15:09;98236.84;;;24.46;36.52
69187;BME280;56301;56.864;60.554;2023-01-31T05:17:33;98236.00;;;24.45;35.70
69187;BME280;56301;56.864;60.554;2023-01-31T05:19:55;98228.72;;;24.46;36.44
69187;BME280;56301;56.864;60.554;2023-01-31T05:22:18;98225.19;;;24.45;36.01
69187;BME280;56301;56.864;60.554;2023-01-31T05:24:41;98228.72;;;24.46;36.19
69187;BME280;56301;56.864;60.554;2023-01-31T05:27:04;98227.69;;;24.47;36.34
69187;BME280;56301;56.864;60.554;2023-01-31T05:29:27;98224.16;;;24.46;36.53
69187;BME280;56301;56.864;60.554;2023-01-31T05:31:51;98226.66;;;24.48;36.59
69187;BME280;56301;56.864;60.554;2023-01-31T05:34:13;98217.53;;;24.49;36.62
69187;BME280;56301;56.864;60.554;2023-01-31T05:36:36;98219.38;;;24.48;36.47
69187;BME280;56301;56.864;60.554;2023-01-31T05:38:58;98223.97;;;24.48;36.42
69187;BME280;56301;56.864;60.554;2023-01-31T05:41:21;98222.28;;;24.47;36.38
69187;BME280;56301;56.864;60.554;2023-01-31T05:43:43;98229.38;;;24.48;36.43
69187;BME280;56301;56.864;60.554;2023-01-31T05:46:06;98222.94;;;24.49;36.61
69187;BME280;56301;56.864;60.554;2023-01-31T05:48:28;98227.28;;;24.50;36.18
69187;BME280;56301;56.864;60.554;2023-01-31T05:50:51;98226.28;;;24.51;35.97
69187;BME280;56301;56.864;60.554;2023-01-31T05:53:13;98232.31;;;24.53;36.11
69187;BME280;56301;56.864;60.554;2023-01-31T05:55:36;98230.28;;;24.55;36.51
69187;BME280;56301;56.864;60.554;2023-01-31T05:57:58;98230.28;;;24.55;36.29
69187;BME280;56301;56.864;60.554;2023-01-31T06:00:22;98231.94;;;24.56;35.82
69187;BME280;56301;56.864;60.554;2023-01-31T06:02:44;98230.28;;;24.55;36.24
69187;BME280;56301;56.864;60.554;2023-01-31T06:05:07;98231.28;;;24.54;36.49
69187;BME280;56301;56.864;60.554;2023-01-31T06:07:30;98236.91;;;24.53;36.06
69187;BME280;56301;56.864;60.554;2023-01-31T06:09:52;98240.63;;;24.52;35.98
69187;BME280;56301;56.864;60.554;2023-01-31T06:12:15;98234.41;;;24.51;36.11
69187;BME280;56301;56.864;60.554;2023-01-31T06:14:38;98244.81;;;24.54;35.80
69187;BME280;56301;56.864;60.554;2023-01-31T06:17:00;98244.63;;;24.56;36.17
69187;BME280;56301;56.864;60.554;2023-01-31T06:19:23;98245.47;;;24.56;36.21
69187;BME280;56301;56.864;60.554;2023-01-31T06:21:45;98238.19;;;24.57;35.88
69187;BME280;56301;56.864;60.554;2023-01-31T06:24:08;98241.72;;;24.57;36.09
69187;BME280;56301;56.864;60.554;2023-01-31T06:26:31;98233.59;;;24.57;35.70
69187;BME280;56301;56.864;60.554;2023-01-31T06:28:53;98240.69;;;24.58;35.92
69187;BME280;56301;56.864;60.554;2023-01-31T06:31:16;98232.38;;;24.60;35.69
69187;BME280;56301;56.864;60.554;2023-01-31T06:33:39;98237.78;;;24.60;36.41
69187;BME280;56301;56.864;60.554;2023-01-31T06:36:02;98248.41;;;24.61;36.17
69187;BME280;56301;56.864;60.554;2023-01-31T06:38:26;98234.88;;;24.61;35.53
69187;BME280;56301;56.864;60.554;2023-01-31T06:40:49;98231.34;;;24.61;35.94
69187;BME280;56301;56.864;60.554;2023-01-31T06:43:12;98236.56;;;24.62;35.74
69187;BME280;56301;56.864;60.554;2023-01-31T06:45:34;98241.97;;;24.62;35.36
69187;BME280;56301;56.864;60.554;2023-01-31T06:47:57;98241.78;;;24.64;35.84
69187;BME280;56301;56.864;60.554;2023-01-31T06:50:20;98236.16;;;24.65;36.34
69187;BME280;56301;56.864;60.554;2023-01-31T06:52:42;98242.66;;;24.71;35.67
69187;BME280;56301;56.864;60.554;2023-01-31T06:55:05;98247.09;;;24.79;35.78
69187;BME280;56301;56.864;60.554;2023-01-31T06:57:28;98242.34;;;24.87;35.75
69187;BME280;56301;56.864;60.554;2023-01-31T06:59:51;98238.09;;;25.00;35.29
69187;BME280;56301;56.864;60.554;2023-01-31T07:02:13;98234.03;;;25.10;35.74
69187;BME280;56301;56.864;60.554;2023-01-31T07:04:36;98234.50;;;25.20;35.46
69187;BME280;56301;56.864;60.554;2023-01-31T07:06:59;98238.09;;;25.28;34.81
69187;BME280;56301;56.864;60.554;2023-01-31T07:09:21;98247.09;;;25.35;34.89
69187;BME280;56301;56.864;60.554;2023-01-31T07:11:44;98241.06;;;25.39;34.39
69187;BME280;56301;56.864;60.554;2023-01-31T07:14:07;98237.13;;;25.42;35.05
69187;BME280;56301;56.864;60.554;2023-01-31T07:16:30;98237.34;;;25.47;34.90
69187;BME280;56301;56.864;60.554;2023-01-31T07:18:53;98242.16;;;25.52;34.72
69187;BME280;56301;56.864;60.554;2023-01-31T07:21:16;98236.13;;;25.56;34.58
69187;BME280;56301;56.864;60.554;2023-01-31T07:23:38;98250.09;;;25.60;34.35
69187;BME280;56301;56.864;60.554;2023-01-31T07:26:04;98234.47;;;25.62;34.66
69187;BME280;56301;56.864;60.554;2023-01-31T07:28:27;98243.03;;;25.65;35.14
69187;BME280;56301;56.864;60.554;2023-01-31T07:30:49;98233.44;;;25.63;34.56
69187;BME280;56301;56.864;60.554;2023-01-31T07:33:12;98226.97;;;25.57;35.38
69187;BME280;56301;56.864;60.554;2023-01-31T07:35:35;98229.88;;;25.49;35.21
69187;BME280;56301;56.864;60.554;2023-01-31T07:37:58;98233.38;;;25.43;35.82
69187;BME280;56301;56.864;60.554;2023-01-31T07:40:20;98230.84;;;25.35;35.14
69187;BME280;56301;56.864;60.554;2023-01-31T07:42:43;98227.03;;;25.29;36.04
69187;BME280;56301;56.864;60.554;2023-01-31T07:45:06;98225.97;;;25.24;35.51
69187;BME280;56301;56.864;60.554;2023-01-31T07:47:29;98231.16;;;25.18;36.51
69187;BME280;56301;56.864;60.554;2023-01-31T07:49:51;98234.47;;;25.14;36.45
69187;BME280;56301;56.864;60.554;2023-01-31T07:52:14;98231.09;;;25.12;36.26
69187;BME280;56301;56.864;60.554;2023-01-31T07:54:36;98228.59;;;25.10;35.55
69187;BME280;56301;56.864;60.554;2023-01-31T07:56:58;98226.91;;;25.09;36.52
69187;BME280;56301;56.864;60.554;2023-01-31T07:59:21;98243.16;;;25.09;36.19
69187;BME280;56301;56.864;60.554;2023-01-31T08:01:43;98235.88;;;25.10;36.33
69187;BME280;56301;56.864;60.554;2023-01-31T08:04:06;98230.28;;;25.11;35.95
69187;BME280;56301;56.864;60.554;2023-01-31T08:06:29;98235.69;;;25.11;36.33
69187;BME280;56301;56.864;60.554;2023-01-31T08:08:52;98230.28;;;25.11;36.19
69187;BME280;56301;56.864;60.554;2023-01-31T08:11:15;98231.94;;;25.12;36.52
69187;BME280;56301;56.864;60.554;2023-01-31T08:13:38;98231.09;;;25.12;35.97
69187;BME280;56301;56.864;60.554;2023-01-31T08:16:01;98240.06;;;25.12;35.47
69187;BME280;56301;56.864;60.554;2023-01-31T08:18:24;98234.66;;;25.12;35.78
69187;BME280;56301;56.864;60.554;2023-01-31T08:20:46;98238.38;;;25.11;36.21
69187;BME280;56301;56.864;60.554;2023-01-31T08:23:09;98233.16;;;25.10;36.25
69187;BME280;56301;56.864;60.554;2023-01-31T08:25:31;98230.63;;;25.08;36.19
69187;BME280;56301;56.864;60.554;2023-01-31T08:27:57;98236.44;;;25.05;35.97
69187;BME280;56301;56.864;60.554;2023-01-31T08:30:20;98228.75;;;25.02;36.36
69187;BME280;56301;56.864;60.554;2023-01-31T08:32:43;98230.78;;;25.00;36.16
69187;BME280;56301;56.864;60.554;2023-01-31T08:35:05;98225.78;;;24.97;36.33
69187;BME280;56301;56.864;60.554;2023-01-31T08:37:28;98230.56;;;24.95;36.32
69187;BME280;56301;56.864;60.554;2023-01-31T08:39:51;98225.53;;;24.92;36.24
69187;BME280;56301;56.864;60.554;2023-01-31T08:42:13;98227.59;;;24.90;36.00
69187;BME280;56301;56.864;60.554;2023-01-31T08:44:36;98225.94;;;24.89;36.17
69187;BME280;56301;56.864;60.554;2023-01-31T08:46:58;98233.22;;;24.88;36.31
69187;BME280;56301;56.864;60.554;2023-01-31T08:49:21;98228.66;;;24.89;36.39
69187;BME280;56301;56.864;60.554;2023-01-31T08:51:43;98234.06;;;24.89;36.31
69187;BME280;56301;56.864;60.554;2023-01-31T08:54:06;98230.69;;;24.87;36.30
69187;BME280;56301;56.864;60.554;2023-01-31T08:56:29;98238.81;;;24.87;36.45
69187;BME280;56301;56.864;60.554;2023-01-31T08:58:51;98230.69;;;24.87;36.36
69187;BME280;56301;56.864;60.554;2023-01-31T09:01:15;98224.44;;;24.86;36.40
69187;BME280;56301;56.864;60.554;2023-01-31T09:03:39;98236.09;;;24.87;36.22
69187;BME280;56301;56.864;60.554;2023-01-31T09:06:03;98242.34;;;24.87;36.20
69187;BME280;56301;56.864;60.554;2023-01-31T09:08:27;98228.81;;;24.87;35.75
69187;BME280;56301;56.864;60.554;2023-01-31T09:10:51;98247.59;;;24.89;35.46
69187;BME280;56301;56.864;60.554;2023-01-31T09:13:13;98237.97;;;24.86;35.53
69187;BME280;56301;56.864;60.554;2023-01-31T09:15:36;98231.75;;;24.86;36.02
69187;BME280;56301;56.864;60.554;2023-01-31T09:17:59;98234.66;;;24.84;35.88
69187;BME280;56301;56.864;60.554;2023-01-31T09:20:21;98227.56;;;24.83;36.63
69187;BME280;56301;56.864;60.554;2023-01-31T09:22:44;98236.91;;;24.81;36.22
69187;BME280;56301;56.864;60.554;2023-01-31T09:25:06;98234.22;;;24.81;36.32
69187;BME280;56301;56.864;60.554;2023-01-31T09:27:29;98235.22;;;24.80;35.75
69187;BME280;56301;56.864;60.554;2023-01-31T09:29:52;98236.25;;;24.79;35.88
69187;BME280;56301;56.864;60.554;2023-01-31T09:32:15;98240.00;;;24.78;35.84
69187;BME280;56301;56.864;60.554;2023-01-31T09:34:37;98238.34;;;24.77;36.04
69187;BME280;56301;56.864;60.554;2023-01-31T09:37:00;98230.41;;;24.75;35.98
69187;BME280;56301;56.864;60.554;2023-01-31T09:39:23;98235.00;;;24.74;36.39
69187;BME280;56301;56.864;60.554;2023-01-31T09:46:43;98214.78;;;24.70;36.15
69187;BME280;56301;56.864;60.554;2023-01-31T09:49:13;98244.53;;;24.70;35.58
69187;BME280;56301;56.864;60.554;2023-01-31T09:51:37;98248.28;;;24.69;36.41
69187;BME280;56301;56.864;60.554;2023-01-31T09:54:01;98242.88;;;24.69;35.81
69187;BME280;56301;56.864;60.554;2023-01-31T09:56:34;98250.34;;;24.67;36.00
69187;BME280;56301;56.864;60.554;2023-01-31T10:06:34;98246.59;;;24.68;37.01
69187;BME280;56301;56.864;60.554;2023-01-31T10:09:00;98245.16;;;24.72;35.94
69187;BME280;56301;56.864;60.554;2023-01-31T10:19:18;98254.16;;;24.80;36.03
69187;BME280;56301;56.864;60.554;2023-01-31T10:21:45;98243.34;;;24.80;36.14
69187;BME280;56301;56.864;60.554;2023-01-31T10:26:33;98243.56;;;24.78;35.70
69187;BME280;56301;56.864;60.554;2023-01-31T10:36:55;98250.00;;;24.77;36.12
69187;BME280;56301;56.864;60.554;2023-01-31T10:41:14;98229.38;;;24.76;36.23
69187;BME280;56301;56.864;60.554;2023-01-31T10:43:51;98235.00;;;24.74;36.60
69187;BME280;56301;56.864;60.554;2023-01-31T10:46:18;98236.66;;;24.76;36.50
69187;BME280;56301;56.864;60.554;2023-01-31T10:48:42;98236.66;;;24.76;36.39
69187;BME280;56301;56.864;60.554;2023-01-31T10:58:52;98238.91;;;24.72;36.29
69187;BME280;56301;56.864;60.554;2023-01-31T11:01:16;98251.63;;;24.71;35.81
69187;BME280;56301;56.864;60.554;2023-01-31T11:03:40;98251.63;;;24.71;35.78
69187;BME280;56301;56.864;60.554;2023-01-31T11:06:09;98252.66;;;24.70;35.78
69187;BME280;56301;56.864;60.554;2023-01-31T11:10:55;98259.09;;;24.69;36.05
69187;BME280;56301;56.864;60.554;2023-01-31T11:13:19;98270.09;;;24.68;35.79
69187;BME280;56301;56.864;60.554;2023-01-31T11:15:41;98268.22;;;24.68;36.47
69187;BME280;56301;56.864;60.554;2023-01-31T11:18:04;98277.38;;;24.67;36.65
69187;BME280;56301;56.864;60.554;2023-01-31T11:20:34;98272.81;;;24.68;36.45
69187;BME280;56301;56.864;60.554;2023-01-31T11:22:58;98268.63;;;24.65;36.34
69187;BME280;56301;56.864;60.554;2023-01-31T11:25:21;98277.16;;;24.62;36.47
69187;BME280;56301;56.864;60.554;2023-01-31T11:27:44;98270.25;;;24.60;36.33
69187;BME280;56301;56.864;60.554;2023-01-31T11:30:18;98272.94;;;24.60;36.64
69187;BME280;56301;56.864;60.554;2023-01-31T11:32:42;98274.16;;;24.57;36.70
69187;BME280;56301;56.864;60.554;2023-01-31T11:37:34;98279.56;;;24.57;36.64
69187;BME280;56301;56.864;60.554;2023-01-31T11:39:58;98271.66;;;24.56;36.12
69187;BME280;56301;56.864;60.554;2023-01-31T11:42:21;98265.44;;;24.55;36.45
69187;BME280;56301;56.864;60.554;2023-01-31T11:44:54;98272.69;;;24.55;35.71
69187;BME280;56301;56.864;60.554;2023-01-31T11:47:17;98264.38;;;24.56;36.31
69187;BME280;56301;56.864;60.554;2023-01-31T11:49:40;98264.38;;;24.56;36.62
69187;BME280;56301;56.864;60.554;2023-01-31T11:54:34;98274.56;;;24.54;36.37
69187;BME280;56301;56.864;60.554;2023-01-31T11:56:58;98266.44;;;24.54;36.26
69187;BME280;56301;56.864;60.554;2023-01-31T11:59:22;98274.56;;;24.54;36.15
69187;BME280;56301;56.864;60.554;2023-01-31T12:01:48;98262.91;;;24.54;35.63
69187;BME280;56301;56.864;60.554;2023-01-31T12:04:22;98271.22;;;24.52;35.89
69187;BME280;56301;56.864;60.554;2023-01-31T12:09:26;98273.09;;;24.52;36.14
69187;BME280;56301;56.864;60.554;2023-01-31T12:11:56;98272.25;;;24.51;36.26
69187;BME280;56301;56.864;60.554;2023-01-31T12:14:19;98287.63;;;24.50;36.19
69187;BME280;56301;56.864;60.554;2023-01-31T12:16:42;98278.69;;;24.50;36.68
69187;BME280;56301;56.864;60.554;2023-01-31T12:24:04;98282.44;;;24.49;36.03
69187;BME280;56301;56.864;60.554;2023-01-31T12:26:36;98281.38;;;24.50;36.21
69187;BME280;56301;56.864;60.554;2023-01-31T12:48:50;98282.34;;;24.42;36.26
69187;BME280;56301;56.864;60.554;2023-01-31T12:51:24;98292.34;;;24.42;36.15
69187;BME280;56301;56.864;60.554;2023-01-31T13:01:46;98291.69;;;24.40;35.96
69187;BME280;56301;56.864;60.554;2023-01-31T13:06:38;98301.84;;;24.38;36.11
69187;BME280;56301;56.864;60.554;2023-01-31T13:09:09;98300.81;;;24.39;36.13
69187;BME280;56301;56.864;60.554;2023-01-31T13:11:43;98299.13;;;24.38;36.08
69187;BME280;56301;56.864;60.554;2023-01-31T13:14:31;98296.59;;;24.36;36.13
69187;BME280;56301;56.864;60.554;2023-01-31T13:16:56;98290.19;;;24.37;36.71
69187;BME280;56301;56.864;60.554;2023-01-31T13:19:23;98296.59;;;24.36;35.96
69187;BME280;56301;56.864;60.554;2023-01-31T13:21:49;98299.53;;;24.35;36.38
69187;BME280;56301;56.864;60.554;2023-01-31T13:24:20;98301.19;;;24.36;36.33
69187;BME280;56301;56.864;60.554;2023-01-31T13:27:32;98299.53;;;24.35;36.42
69187;BME280;56301;56.864;60.554;2023-01-31T13:29:28;98297.84;;;24.34;35.92
69187;BME280;56301;56.864;60.554;2023-01-31T13:36:42;98314.06;;;24.34;35.82
69187;BME280;56301;56.864;60.554;2023-01-31T13:39:48;98299.72;;;24.33;35.99
69187;BME280;56301;56.864;60.554;2023-01-31T13:41:51;98305.13;;;24.33;35.87
69187;BME280;56301;56.864;60.554;2023-01-31T13:44:14;98298.84;;;24.33;36.38
69187;BME280;56301;56.864;60.554;2023-01-31T13:49:31;98295.53;;;24.31;35.63
69187;BME280;56301;56.864;60.554;2023-01-31T13:52:16;98299.06;;;24.31;36.15
69187;BME280;56301;56.864;60.554;2023-01-31T13:54:50;98300.94;;;24.31;36.14
69187;BME280;56301;56.864;60.554;2023-01-31T13:59:50;98299.28;;;24.30;35.45
69187;BME280;56301;56.864;60.554;2023-01-31T14:02:17;98295.69;;;24.29;36.21
69187;BME280;56301;56.864;60.554;2023-01-31T14:04:41;98297.56;;;24.29;35.66
69187;BME280;56301;56.864;60.554;2023-01-31T14:09:33;98296.75;;;24.28;35.16
69187;BME280;56301;56.864;60.554;2023-01-31T14:11:57;98301.31;;;24.27;35.24
69187;BME280;56301;56.864;60.554;2023-01-31T14:16:55;98304.03;;;24.27;35.46
69187;BME280;56301;56.864;60.554;2023-01-31T14:21:43;98298.63;;;24.27;35.52
69187;BME280;56301;56.864;60.554;2023-01-31T14:24:16;98301.97;;;24.30;35.38
69187;BME280;56301;56.864;60.554;2023-01-31T14:29:15;98296.56;;;24.30;35.83
69187;BME280;56301;56.864;60.554;2023-01-31T14:31:39;98300.28;;;24.29;35.41
69187;BME280;56301;56.864;60.554;2023-01-31T14:34:04;98299.44;;;24.28;34.99
69187;BME280;56301;56.864;60.554;2023-01-31T14:36:45;98304.69;;;24.30;35.78
69187;BME280;56301;56.864;60.554;2023-01-31T14:41:49;98305.69;;;24.29;35.75
69187;BME280;56301;56.864;60.554;2023-01-31T14:47:07;98300.28;;;24.29;35.22
69187;BME280;56301;56.864;60.554;2023-01-31T14:57:39;98317.34;;;24.29;35.49
69187;BME280;56301;56.864;60.554;2023-01-31T15:00:04;98317.34;;;24.29;35.44
69187;BME280;56301;56.864;60.554;2023-01-31T15:07:19;98318.19;;;24.30;35.79
69187;BME280;56301;56.864;60.554;2023-01-31T15:09:42;98327.31;;;24.29;35.53
69187;BME280;56301;56.864;60.554;2023-01-31T15:12:11;98322.94;;;24.27;35.30
69187;BME280;56301;56.864;60.554;2023-01-31T15:14:48;98318.56;;;24.26;35.23